Time;durP1;ratioP1;P1;durP2;ratioP2;P2;SDS_P1;SDS_P2;PMS_P1;PMS_P2;Temp;Humidity;BMP_temperature;BMP_pressure;BME280_temperature;BME280_humidity;BME280_pressure;Samples;Min_cycle;Max_cycle;Signal;HPM_P1;HPM_P2
2022/05/24 00:00:01;;;;;;;12.10;8.93;;;;;;;16.49;69.76;98614.84;5018429;28;20052;-64
2022/05/24 00:02:45;;;;;;;12.52;9.10;;;;;;;16.47;69.90;98611.44;5012671;28;20057;-64
2022/05/24 00:05:32;;;;;;;12.18;9.25;;;;;;;16.40;69.81;98609.00;5012640;28;20052;-64
2022/05/24 00:08:16;;;;;;;14.40;10.43;;;;;;;16.47;69.81;98604.44;5012894;28;20057;-65
2022/05/24 00:11:00;;;;;;;14.45;9.40;;;;;;;16.47;69.82;98591.38;5013725;28;20124;-64
2022/05/24 00:13:46;;;;;;;;;;;;;;;16.48;69.80;98600.94;5013760;28;20121;-64
2022/05/24 00:16:31;;;;;;;12.05;8.25;;;;;;;16.47;69.87;98606.19;5013453;28;19921;-64
2022/05/24 00:19:14;;;;;;;11.23;8.25;;;;;;;16.45;69.63;98595.78;5013960;28;20057;-64
2022/05/24 00:21:58;;;;;;;12.98;9.27;;;;;;;16.43;69.58;98595.81;5013583;28;20049;-65
2022/05/24 00:24:42;;;;;;;12.43;8.18;;;;;;;16.45;69.67;98603.63;5013716;28;20041;-64
2022/05/24 00:27:30;;;;;;;11.43;7.57;;;;;;;16.42;69.51;98612.44;5013379;28;20458;-64
2022/05/24 00:30:16;;;;;;;10.30;7.60;;;;;;;16.40;69.59;98611.63;5013520;28;20100;-64
2022/05/24 00:33:00;;;;;;;9.70;6.60;;;;;;;16.38;69.38;98610.81;5012303;28;20126;-64
2022/05/24 00:35:45;;;;;;;10.98;6.65;;;;;;;16.35;69.44;98602.22;5013806;28;20148;-64
2022/05/24 00:38:36;;;;;;;14.93;7.40;;;;;;;16.34;69.45;98597.91;5013300;28;20049;-64
2022/05/24 00:41:31;;;;;;;13.88;6.32;;;;;;;16.33;69.47;98596.19;5012520;28;20076;-64
2022/05/24 00:44:18;;;;;;;12.70;7.25;;;;;;;16.34;69.44;98592.66;5012632;28;20416;-64
2022/05/24 00:47:14;;;;;;;10.30;5.97;;;;;;;16.33;69.30;98601.41;5013648;28;20045;-64
2022/05/24 00:50:03;;;;;;;9.75;6.53;;;;;;;16.31;69.08;98595.38;5012288;28;20044;-64
2022/05/24 00:53:16;;;;;;;13.60;6.45;;;;;;;16.33;69.40;98601.41;5013312;28;20508;-64
2022/05/24 00:56:14;;;;;;;11.68;5.82;;;;;;;16.33;69.27;98601.41;5012217;28;20053;-64
2022/05/24 00:59:03;;;;;;;10.50;5.43;;;;;;;16.32;69.24;98605.75;5012442;28;20132;-64
2022/05/24 01:01:48;;;;;;;10.80;6.22;;;;;;;16.32;69.16;98597.09;5015922;28;20596;-64
2022/05/24 01:04:31;;;;;;;;;;;;;;;16.29;69.15;98591.03;5018724;28;20060;-64
2022/05/24 01:07:15;;;;;;;11.38;5.43;;;;;;;16.27;69.22;98589.38;5032781;28;20070;-65
2022/05/24 01:10:05;;;;;;;9.85;5.28;;;;;;;16.25;69.23;98596.41;5034336;28;20519;-64
2022/05/24 01:13:00;;;;;;;13.10;5.82;;;;;;;16.24;69.15;98600.78;5021941;28;20060;-64
2022/05/24 01:15:44;;;;;;;9.43;5.82;;;;;;;16.25;69.03;98609.47;5021350;28;20056;-64
2022/05/24 01:18:28;;;;;;;;;;;;;;;16.20;68.78;98591.31;5021573;28;20582;-64
2022/05/24 01:21:16;;;;;;;12.15;5.72;;;;;;;16.20;68.65;98606.97;5036512;28;19963;-64
2022/05/24 01:24:06;;;;;;;11.02;4.50;;;;;;;16.19;68.93;98602.69;5035873;28;20057;-65
2022/05/24 01:26:56;;;;;;;7.32;4.40;;;;;;;16.18;69.07;98593.13;5036351;28;20095;-64
2022/05/24 01:29:40;;;;;;;11.00;5.38;;;;;;;16.19;68.78;98599.19;5021215;28;20049;-64
2022/05/24 01:38:31;;;;;;;11.00;4.13;;;;;;;16.12;68.65;98599.38;5036311;28;20528;-64
2022/05/24 01:41:22;;;;;;;9.45;4.38;;;;;;;16.12;68.45;98615.06;5021533;28;20052;-64
2022/05/24 01:44:07;;;;;;;10.50;4.43;;;;;;;16.13;68.61;98610.69;5021172;28;20056;-64
2022/05/24 01:46:51;;;;;;;8.48;4.47;;;;;;;16.14;68.62;98617.63;5020560;28;20117;-63
2022/05/24 01:49:39;;;;;;;13.18;4.50;;;;;;;16.12;68.56;98612.44;5035573;28;20095;-64
2022/05/24 01:52:32;;;;;;;9.27;3.92;;;;;;;16.11;68.25;98617.72;5021122;28;20119;-64
2022/05/24 01:55:22;;;;;;;7.68;3.58;;;;;;;16.08;68.41;98613.44;5020567;28;20068;-64
2022/05/24 01:58:10;;;;;;;9.18;3.53;;;;;;;16.09;68.29;98609.06;5020621;28;20052;-64
2022/05/24 02:01:00;;;;;;;7.50;3.40;;;;;;;16.08;68.25;98613.44;5020282;28;20172;-64
2022/05/24 02:03:44;;;;;;;7.15;3.47;;;;;;;16.10;68.36;98597.72;5020470;28;20060;-64
2022/05/24 02:06:30;;;;;;;11.35;3.88;;;;;;;16.11;68.28;98594.19;5020526;28;20065;-64
2022/05/24 02:09:14;;;;;;;7.22;3.30;;;;;;;16.11;68.39;98588.97;5035209;28;20056;-64
2022/05/24 02:12:02;;;;;;;8.43;3.70;;;;;;;16.11;68.12;98595.06;5034930;28;20052;-64
2022/05/24 02:14:53;;;;;;;9.98;3.65;;;;;;;16.12;67.96;98614.22;5020662;28;20603;-64
2022/05/24 02:18:11;;;;;;;12.73;3.50;;;;;;;16.11;68.04;98615.97;5020471;28;20048;-63
2022/05/24 02:20:55;;;;;;;7.10;3.80;;;;;;;16.10;68.17;98600.31;5034727;28;20554;-64
2022/05/24 02:23:45;;;;;;;5.70;3.08;;;;;;;16.11;68.06;98594.19;5035339;28;20052;-64
2022/05/24 02:26:30;;;;;;;9.60;3.10;;;;;;;16.06;68.05;98599.56;5034711;28;20508;-63
2022/05/24 02:29:15;;;;;;;7.43;3.75;;;;;;;16.08;68.12;98594.28;5034838;28;20056;-63
2022/05/24 02:31:59;;;;;;;8.50;3.85;;;;;;;16.05;67.85;98590.03;5020097;28;20151;-64
2022/05/24 02:34:43;;;;;;;10.60;4.20;;;;;;;16.06;67.98;98590.84;5020437;28;20087;-64
2022/05/24 02:37:27;;;;;;;10.60;3.53;;;;;;;16.02;68.09;98592.72;5034382;28;20104;-64
2022/05/24 02:43:14;;;;;;;5.90;3.33;;;;;;;16.02;67.95;98595.31;5035053;28;20523;-63
2022/05/24 02:45:58;;;;;;;13.85;4.28;;;;;;;16.02;67.86;98589.25;5034227;28;20123;-64
2022/05/24 02:48:43;;;;;;;9.57;3.40;;;;;;;16.03;68.10;98589.22;5034225;28;20463;-64
2022/05/24 02:51:28;;;;;;;6.97;3.45;;;;;;;16.02;67.76;98595.31;5019883;28;20080;-64
2022/05/24 02:54:12;;;;;;;7.07;3.70;;;;;;;16.04;67.74;98597.91;5034517;28;20056;-64
2022/05/24 02:56:58;;;;;;;8.00;3.30;;;;;;;16.03;67.85;98599.66;5034645;28;20040;-64
2022/05/24 02:59:42;;;;;;;6.65;3.85;;;;;;;16.01;67.76;98592.78;5034260;28;20099;-64
2022/05/24 03:02:26;;;;;;;7.85;3.70;;;;;;;16.01;67.77;98611.06;5019409;28;20056;-65
2022/05/24 03:05:12;;;;;;;13.13;3.60;;;;;;;15.98;67.68;98609.38;5034486;28;20091;-64
2022/05/24 03:10:59;;;;;;;7.15;3.85;;;;;;;15.93;67.87;98599.06;5034140;28;20060;-64
2022/05/24 03:16:48;;;;;;;10.00;3.03;;;;;;;15.91;67.48;98607.84;5033996;28;20405;-64
2022/05/24 03:19:32;;;;;;;7.45;3.40;;;;;;;15.86;67.55;98613.22;5019270;28;20405;-64
2022/05/24 03:22:16;;;;;;;5.95;2.58;;;;;;;15.81;67.54;98630.72;5034157;28;20429;-64
2022/05/24 03:25:00;;;;;;;9.00;2.83;;;;;;;15.80;67.46;98635.09;5033714;28;20129;-64
2022/05/24 03:27:46;;;;;;;9.70;3.67;;;;;;;15.78;67.44;98634.31;5019538;28;20099;-64
2022/05/24 03:30:31;;;;;;;7.45;2.83;;;;;;;15.75;67.48;98650.06;5033971;28;20095;-64
2022/05/24 03:33:15;;;;;;;7.80;3.03;;;;;;;15.74;67.48;98656.16;5018556;28;20590;-64
2022/05/24 03:36:00;;;;;;;7.22;3.47;;;;;;;15.73;67.54;98653.59;5033831;28;20519;-63
2022/05/24 03:38:44;;;;;;;8.82;3.00;;;;;;;15.74;67.40;98665.75;5019146;28;20048;-64
2022/05/24 03:41:28;;;;;;;6.85;2.60;;;;;;;15.72;67.60;98673.63;5034103;28;20080;-64
2022/05/24 03:44:12;;;;;;;7.65;2.75;;;;;;;15.70;67.55;98664.13;5034046;28;20111;-66
2022/05/24 03:46:56;;;;;;;;;;;;;;;15.66;67.19;98659.00;5034188;28;20099;-63
2022/05/24 03:49:40;;;;;;;5.75;2.45;;;;;;;15.70;67.63;98644.09;5033426;28;19983;-64
2022/05/24 03:52:25;;;;;;;6.60;2.45;;;;;;;15.71;67.61;98639.75;5033150;28;20120;-64
2022/05/24 03:55:10;;;;;;;5.25;2.53;;;;;;;15.72;67.38;98647.50;5032931;28;20045;-64
2022/05/24 03:58:00;;;;;;;7.40;2.63;;;;;;;15.72;67.46;98667.56;5033762;28;20091;-64
2022/05/24 04:00:45;;;;;;;4.50;2.40;;;;;;;15.72;67.32;98685.84;5018661;28;20061;-64
2022/05/24 04:03:29;;;;;;;9.50;2.80;;;;;;;15.70;67.54;98687.63;5019023;28;20144;-64
2022/05/24 04:06:14;;;;;;;8.13;2.50;;;;;;;15.70;67.30;98693.72;5033511;28;20052;-64
2022/05/24 04:08:58;;;;;;;5.63;2.15;;;;;;;15.67;67.35;98684.22;5033662;28;20455;-64
2022/05/24 04:11:42;;;;;;;6.05;2.65;;;;;;;15.68;67.51;98682.44;5018073;28;20077;-63
2022/05/24 04:14:29;;;;;;;7.28;2.58;;;;;;;15.60;67.22;98687.03;5033359;28;20092;-64
2022/05/24 04:17:13;;;;;;;6.95;2.80;;;;;;;15.63;67.44;98689.56;5018640;28;20079;-63
2022/05/24 04:19:57;;;;;;;8.55;2.28;;;;;;;15.61;67.27;98683.50;5033112;28;20405;-64
2022/05/24 04:22:42;;;;;;;4.78;2.30;;;;;;;15.61;67.48;98675.69;5033498;28;20048;-64
2022/05/24 04:25:26;;;;;;;4.30;2.30;;;;;;;15.60;67.23;98676.56;5018513;28;20056;-65
2022/05/24 04:28:11;;;;;;;4.90;2.40;;;;;;;15.57;67.23;98693.16;5018110;28;20048;-63
2022/05/24 04:30:55;;;;;;;7.63;2.50;;;;;;;15.60;67.31;98708.75;5018248;28;20056;-64
2022/05/24 04:33:39;;;;;;;7.10;2.65;;;;;;;15.55;67.23;98710.66;5033027;28;20048;-64
2022/05/24 04:36:23;;;;;;;4.63;2.15;;;;;;;15.53;67.33;98726.34;5033248;28;20103;-64
2022/05/24 04:39:07;;;;;;;5.40;2.35;;;;;;;15.57;67.28;98723.66;5032948;28;20044;-64
2022/05/24 04:44:58;;;;;;;5.38;2.83;;;;;;;15.51;67.21;98730.72;5035698;28;19920;-63
2022/05/24 04:47:42;;;;;;;6.55;2.58;;;;;;;15.53;67.46;98733.31;5036814;28;20060;-64
2022/05/24 04:50:26;;;;;;;5.25;2.63;;;;;;;15.52;67.18;98734.22;5036800;28;20109;-64
2022/05/24 04:53:10;;;;;;;;;;;;;;;15.50;67.21;98738.63;5022141;28;20068;-64
2022/05/24 04:55:54;;;;;;;7.87;2.90;;;;;;;15.48;67.33;98730.84;5021571;28;19919;-64
2022/05/24 04:58:38;;;;;;;5.43;2.28;;;;;;;15.52;67.30;98729.00;5037068;28;20142;-64
2022/05/24 05:01:22;;;;;;;9.15;3.15;;;;;;;15.51;67.26;98720.28;5036844;28;20106;-63
2022/05/24 05:04:06;;;;;;;4.97;2.58;;;;;;;15.51;67.33;98717.69;5036287;28;20122;-64
2022/05/24 05:06:50;;;;;;;7.28;2.97;;;;;;;15.51;67.35;98715.06;5036401;28;20099;-63
2022/05/24 05:09:34;;;;;;;8.20;3.47;;;;;;;15.53;67.11;98728.94;5036731;28;20516;-63
2022/05/24 05:12:19;;;;;;;6.60;2.70;;;;;;;15.51;67.38;98737.72;5035899;28;20120;-63
2022/05/24 05:15:05;;;;;;;8.95;3.28;;;;;;;15.52;67.20;98747.28;5021993;28;20123;-63
2022/05/24 05:17:50;;;;;;;7.85;3.03;;;;;;;15.51;67.20;98763.84;5021767;28;20068;-63
2022/05/24 05:20:39;;;;;;;5.68;2.70;;;;;;;15.50;67.29;98773.41;5036623;28;20515;-64
2022/05/24 05:23:22;;;;;;;8.27;3.17;;;;;;;15.48;67.13;98769.13;5021623;28;20401;-63
2022/05/24 05:26:06;;;;;;;7.38;3.65;;;;;;;15.46;67.28;98763.97;5036588;28;20160;-64
2022/05/24 05:28:51;;;;;;;6.72;2.75;;;;;;;15.46;67.16;98763.97;5036425;28;20044;-63
2022/05/24 05:31:44;;;;;;;8.93;3.17;;;;;;;15.47;67.34;98764.78;5035837;28;20462;-64
2022/05/24 05:34:28;;;;;;;10.63;3.60;;;;;;;15.43;67.17;98770.97;5021083;28;20047;-64
2022/05/24 05:37:11;;;;;;;3.30;2.30;;;;;;;15.43;67.31;98766.63;5021299;28;20053;-63
2022/05/24 05:39:56;;;;;;;7.65;3.30;;;;;;;15.44;67.29;98768.34;5021171;28;20401;-65
2022/05/24 05:42:43;;;;;;;6.70;2.85;;;;;;;15.42;67.11;98767.53;5021796;28;20048;-63
2022/05/24 05:45:27;;;;;;;10.38;2.85;;;;;;;15.43;67.28;98770.97;5021227;28;20179;-63
2022/05/24 05:48:11;;;;;;;8.85;2.75;;;;;;;15.39;67.17;98775.44;5035818;28;20049;-64
2022/05/24 05:50:55;;;;;;;6.43;2.72;;;;;;;15.38;67.28;98777.19;5036048;28;20118;-65
2022/05/24 05:53:40;;;;;;;8.95;2.90;;;;;;;15.34;67.21;98788.59;5035805;28;20079;-64
2022/05/24 05:56:23;;;;;;;13.32;2.60;;;;;;;15.35;67.39;98794.66;5034957;28;20397;-63
2022/05/24 05:59:08;;;;;;;6.72;3.20;;;;;;;15.33;67.18;98802.53;5035814;28;20076;-64
2022/05/24 06:01:56;;;;;;;6.65;2.47;;;;;;;15.29;67.11;98800.88;5020720;28;20103;-64
2022/05/24 06:04:40;;;;;;;8.20;2.20;;;;;;;15.28;67.35;98801.78;5021328;28;20069;-64
2022/05/24 06:07:24;;;;;;;6.35;2.40;;;;;;;15.29;67.26;98808.72;5035435;28;20052;-64
2022/05/24 06:10:10;;;;;;;9.32;2.63;;;;;;;15.27;67.23;98813.09;5035656;28;20080;-63
2022/05/24 06:12:58;;;;;;;7.72;2.85;;;;;;;15.25;67.58;98806.22;5020483;28;20102;-64
2022/05/24 06:15:47;;;;;;;4.22;2.47;;;;;;;15.26;67.10;98815.75;5035298;28;20067;-64
2022/05/24 06:18:41;;;;;;;9.85;3.00;;;;;;;15.24;67.19;98815.81;5020273;28;20099;-63
2022/05/24 06:21:25;;;;;;;6.50;2.40;;;;;;;15.22;67.14;98825.44;5020573;28;20083;-65
2022/05/24 06:24:09;;;;;;;10.25;2.53;;;;;;;15.22;67.15;98828.03;5035125;28;20056;-63
2022/05/24 06:26:53;;;;;;;13.70;3.10;;;;;;;15.17;67.22;98829.88;5034776;28;20052;-64
2022/05/24 06:29:37;;;;;;;5.47;2.22;;;;;;;15.16;67.21;98828.16;5035094;28;20409;-63
2022/05/24 06:32:30;;;;;;;5.80;2.78;;;;;;;15.14;67.22;98830.81;5020064;28;20068;-63
2022/05/24 06:35:14;;;;;;;6.18;2.72;;;;;;;15.18;67.10;98836.81;5019617;28;20523;-64
2022/05/24 06:37:58;;;;;;;8.63;2.70;;;;;;;15.16;67.28;98833.38;5019750;28;20124;-64
2022/05/24 06:40:43;;;;;;;7.40;2.78;;;;;;;15.15;66.96;98842.09;5034623;28;20060;-63
2022/05/24 06:43:27;;;;;;;4.95;2.35;;;;;;;15.13;67.08;98841.25;5034676;28;20064;-64
2022/05/24 06:46:11;;;;;;;3.25;2.60;;;;;;;15.10;67.14;98836.13;5019838;28;20052;-64
2022/05/24 06:48:55;;;;;;;7.70;3.38;;;;;;;15.06;67.05;98848.38;5020056;28;20045;-63
2022/05/24 06:51:39;;;;;;;4.30;2.30;;;;;;;15.07;67.21;98858.78;5034623;28;20064;-63
2022/05/24 06:54:23;;;;;;;4.97;2.50;;;;;;;15.06;66.97;98857.06;5034963;28;20532;-64
2022/05/24 06:57:07;;;;;;;7.70;2.78;;;;;;;15.06;67.07;98859.69;5019683;28;20057;-63
2022/05/24 07:03:12;;;;;;;5.55;2.65;;;;;;;15.04;66.86;98857.97;5034129;28;20520;-64
2022/05/24 07:05:56;;;;;;;9.43;2.80;;;;;;;15.04;66.96;98863.19;5033517;28;20053;-64
2022/05/24 07:08:40;;;;;;;6.75;2.78;;;;;;;15.00;67.03;98862.41;5016777;28;20091;-64
2022/05/24 07:11:24;;;;;;;4.97;2.33;;;;;;;14.97;66.55;98872.06;5017820;28;20083;-65
2022/05/24 07:14:08;;;;;;;3.95;2.58;;;;;;;14.94;66.84;98861.69;5033924;28;20080;-64
2022/05/24 07:16:52;;;;;;;6.18;3.20;;;;;;;14.90;66.72;98863.50;5033852;28;20049;-63
2022/05/24 07:19:38;;;;;;;3.42;2.58;;;;;;;14.88;66.78;98860.91;5034189;28;20584;-64
2022/05/24 07:22:25;;;;;;;44.67;26.85;;;;;;;14.84;66.87;98856.66;5033938;28;20578;-61
2022/05/24 07:25:10;;;;;;;84.70;72.15;;;;;;;14.81;66.91;98850.63;5018872;28;20586;-61
2022/05/24 07:27:54;;;;;;;25.48;19.67;;;;;;;14.80;66.70;98868.03;5032475;28;20099;-62
2022/05/24 07:30:39;;;;;;;22.30;14.48;;;;;;;14.78;66.72;98885.47;5033203;28;20103;-62
2022/05/24 07:33:28;;;;;;;15.75;9.95;;;;;;;14.81;66.78;98877.59;5018100;28;20055;-62
2022/05/24 07:36:18;;;;;;;12.85;6.50;;;;;;;14.82;66.78;98888.88;5018898;28;20075;-62
2022/05/24 07:39:02;;;;;;;9.20;4.43;;;;;;;14.81;66.68;98895.84;5018032;28;20047;-63
2022/05/24 07:48:01;;;;;;;7.28;3.08;;;;;;;14.81;66.88;98913.22;5033093;28;20480;-62
2022/05/24 07:50:53;;;;;;;9.75;2.97;;;;;;;14.79;66.58;98921.09;5018352;28;20048;-62
2022/05/24 07:53:37;;;;;;;9.75;3.35;;;;;;;14.80;66.64;98928.03;5018440;28;20052;-61
2022/05/24 07:56:27;;;;;;;7.28;3.00;;;;;;;14.76;66.45;98916.81;5018707;28;20049;-61
2022/05/24 07:59:14;;;;;;;3.97;2.60;;;;;;;14.74;66.43;98925.53;5018940;28;20052;-61
2022/05/24 08:02:02;;;;;;;9.20;2.40;;;;;;;14.73;66.37;98926.41;5017952;28;20111;-62
2022/05/24 08:04:54;;;;;;;6.95;2.53;;;;;;;14.70;66.38;98936.94;5033438;28;20526;-61
2022/05/24 08:07:45;;;;;;;3.50;2.20;;;;;;;14.67;66.12;98940.41;5018343;28;20052;-62
2022/05/24 08:10:34;;;;;;;5.88;2.58;;;;;;;14.64;65.78;98942.22;5018574;28;20451;-62
2022/05/24 08:13:26;;;;;;;4.80;2.65;;;;;;;14.60;66.10;98955.28;5018465;28;20523;-62
2022/05/24 08:16:13;;;;;;;8.23;2.53;;;;;;;14.64;66.30;98963.91;5033367;28;20049;-61
2022/05/24 08:18:59;;;;;;;4.40;2.53;;;;;;;14.67;66.19;98958.66;5034924;28;20053;-61
2022/05/24 08:21:51;;;;;;;3.28;1.73;;;;;;;14.70;66.22;98952.56;5037025;28;20048;-62
2022/05/24 08:24:40;;;;;;;5.63;2.05;;;;;;;14.71;66.01;98962.97;5037620;28;20099;-62
2022/05/24 08:27:32;;;;;;;4.55;2.20;;;;;;;14.76;66.26;98958.53;5022715;28;20053;-62
2022/05/24 08:30:23;;;;;;;13.38;2.35;;;;;;;14.80;66.25;98954.09;5022100;28;20160;-62
2022/05/24 08:33:11;;;;;;;9.32;2.45;;;;;;;14.81;65.68;98961.03;5022301;28;20049;-61
2022/05/24 08:35:55;;;;;;;3.97;2.50;;;;;;;14.84;66.00;98958.38;5022191;28;20060;-62
2022/05/24 08:38:50;;;;;;;8.40;2.08;;;;;;;14.87;65.62;98958.31;5037424;28;20076;-61
2022/05/24 08:41:59;;;;;;;8.57;2.72;;;;;;;14.90;65.73;98968.69;5022151;28;20080;-62
2022/05/24 08:48:23;;;;;;;3.50;2.17;;;;;;;14.85;65.67;98975.75;5036988;28;20056;-63
2022/05/24 08:51:24;;;;;;;6.15;2.65;;;;;;;14.85;65.65;98982.72;5037066;28;20072;-62
2022/05/24 08:54:21;;;;;;;4.38;1.73;;;;;;;14.84;65.56;98978.38;5037165;28;20056;-62
2022/05/24 08:57:25;;;;;;;7.25;2.45;;;;;;;14.80;65.45;98994.97;5021875;28;20040;-62
2022/05/24 09:00:15;;;;;;;3.45;2.33;;;;;;;14.81;65.55;98989.75;5036775;28;20087;-61
2022/05/24 09:03:05;;;;;;;4.45;2.05;;;;;;;14.79;65.45;98994.13;5021277;28;20056;-62
2022/05/24 09:06:01;;;;;;;5.15;3.13;;;;;;;14.77;65.20;99001.97;5022004;28;20087;-64
2022/05/24 09:09:01;;;;;;;4.15;2.10;;;;;;;14.78;65.57;99018.47;5035246;28;20562;-64
2022/05/24 09:12:10;;;;;;;3.33;2.53;;;;;;;14.76;65.28;99015.91;5019469;28;20566;-64
2022/05/24 09:15:32;;;;;;;7.78;2.42;;;;;;;14.79;65.15;99019.34;5036065;28;20049;-66
2022/05/24 09:18:37;;;;;;;3.95;2.50;;;;;;;14.80;65.40;99014.09;5020526;28;20539;-64
2022/05/24 09:21:29;;;;;;;4.50;2.20;;;;;;;14.82;65.45;99012.31;5036234;28;20151;-64
2022/05/24 09:24:37;;;;;;;3.08;2.20;;;;;;;14.84;65.37;99017.50;5036123;28;20052;-64
2022/05/24 09:27:49;;;;;;;4.78;2.22;;;;;;;14.85;65.28;99007.06;5036047;28;20091;-64
2022/05/24 09:30:57;;;;;;;6.00;2.17;;;;;;;14.85;65.15;99017.50;5019876;28;20045;-64
2022/05/24 09:33:56;;;;;;;4.30;1.80;;;;;;;14.87;65.24;99023.50;5021514;28;20098;-63
2022/05/24 09:36:58;;;;;;;5.70;2.28;;;;;;;14.87;64.82;99015.69;5035629;28;20056;-63
2022/05/24 09:39:55;;;;;;;2.63;1.92;;;;;;;14.89;65.03;99013.91;5020624;28;20125;-66
2022/05/24 09:42:39;;;;;;;4.70;2.45;;;;;;;14.90;64.97;99012.19;5021164;28;20083;-64
2022/05/24 09:45:37;;;;;;;8.80;3.10;;;;;;;14.90;65.10;99018.25;5035850;28;20052;-64
2022/05/24 09:48:27;;;;;;;4.53;2.20;;;;;;;14.94;64.91;99026.91;5035900;28;20142;-63
2022/05/24 09:51:31;;;;;;;5.03;1.98;;;;;;;14.98;65.29;99015.50;5035642;28;20052;-64
2022/05/24 09:54:25;;;;;;;5.90;2.13;;;;;;;15.02;64.87;99018.94;5020680;28;20075;-64
2022/05/24 09:57:13;;;;;;;4.85;2.22;;;;;;;15.03;64.97;99018.03;5020898;28;20137;-65
2022/05/24 10:00:20;;;;;;;4.70;2.20;;;;;;;15.04;64.82;99024.97;5020457;28;20083;-64
2022/05/24 10:03:12;;;;;;;3.72;2.28;;;;;;;15.08;64.78;99039.69;5020284;28;20060;-64
2022/05/24 10:06:22;;;;;;;4.30;2.22;;;;;;;15.07;64.77;99022.31;5035771;28;20056;-64
2022/05/24 10:09:19;;;;;;;3.45;2.05;;;;;;;15.10;64.90;99031.84;5020018;28;20052;-63
2022/05/24 10:12:15;;;;;;;4.80;2.03;;;;;;;15.15;64.88;99025.63;5035212;28;20044;-64
2022/05/24 10:15:14;;;;;;;4.05;2.47;;;;;;;15.22;65.07;99029.00;5020220;28;20064;-63
2022/05/24 10:18:27;;;;;;;5.60;2.50;;;;;;;15.25;64.95;99028.94;5020467;28;20087;-64
2022/05/24 10:21:37;;;;;;;2.67;1.95;;;;;;;15.28;64.63;99033.22;5035283;28;20095;-64
2022/05/24 10:25:10;;;;;;;4.93;2.05;;;;;;;15.29;64.69;99035.78;5035098;28;20153;-64
2022/05/24 10:28:26;;;;;;;3.05;1.92;;;;;;;15.32;64.65;99038.34;5020346;28;20448;-64
2022/05/24 10:31:21;;;;;;;4.43;2.15;;;;;;;15.36;64.73;99032.19;5012397;28;20129;-64
2022/05/24 10:38:18;;;;;;;4.35;2.00;;;;;;;15.40;64.41;99021.69;5034567;28;20574;-64
2022/05/24 10:41:14;;;;;;;5.72;2.47;;;;;;;15.38;64.42;99025.19;5034313;28;20079;-64
2022/05/24 10:44:12;;;;;;;4.75;2.00;;;;;;;15.35;64.43;99034.81;5019647;28;20045;-64
2022/05/24 10:47:13;;;;;;;3.45;2.00;;;;;;;15.32;64.36;99040.97;5019554;28;20127;-64
2022/05/24 10:50:09;;;;;;;2.65;2.15;;;;;;;15.34;64.19;99040.91;5019824;28;20052;-64
2022/05/24 10:53:00;;;;;;;3.75;1.77;;;;;;;15.38;64.24;99045.19;5019485;28;20068;-64
2022/05/24 10:56:01;;;;;;;3.33;2.03;;;;;;;15.36;64.04;99044.38;5034567;28;20103;-63
2022/05/24 10:58:53;;;;;;;8.38;2.25;;;;;;;15.34;64.01;99044.41;5034558;28;20040;-64
2022/05/24 11:01:43;;;;;;;3.45;2.10;;;;;;;15.31;63.79;99046.22;5019085;28;20467;-65
2022/05/24 11:04:42;;;;;;;3.83;1.80;;;;;;;15.33;63.98;99039.22;5019718;28;20052;-64
2022/05/24 11:07:30;;;;;;;2.85;2.00;;;;;;;15.35;64.20;99043.53;5033963;28;20528;-64
2022/05/24 11:10:45;;;;;;;4.30;2.15;;;;;;;15.40;63.78;99056.47;5019629;28;20103;-64
2022/05/24 11:14:07;;;;;;;4.72;2.20;;;;;;;15.43;63.73;99051.19;5034082;28;20056;-64
2022/05/24 11:17:00;;;;;;;2.55;1.83;;;;;;;15.46;63.61;99055.50;5034112;28;20045;-64
2022/05/24 11:19:54;;;;;;;6.32;2.20;;;;;;;15.48;63.69;99046.75;5034118;28;20462;-64
2022/05/24 11:22:44;;;;;;;;;;;;;;;15.49;63.73;99056.28;5034750;28;20417;-64
2022/05/24 11:25:37;;;;;;;3.05;1.90;;;;;;;15.47;63.78;99057.22;5034268;28;20023;-64
2022/05/24 11:28:35;;;;;;;3.97;2.08;;;;;;;15.45;63.70;99056.38;5018910;28;20048;-64
2022/05/24 11:31:43;;;;;;;4.30;1.92;;;;;;;15.42;63.38;99056.44;5019146;28;20198;-64
2022/05/24 11:34:38;;;;;;;3.63;1.73;;;;;;;15.41;63.61;99071.25;5018861;28;20102;-64
2022/05/24 11:37:32;;;;;;;4.78;1.95;;;;;;;15.38;63.53;99068.69;5033616;28;20527;-65
2022/05/24 11:40:38;;;;;;;;;;;;;;;15.37;63.53;99069.59;5019635;28;20052;-64
2022/05/24 11:43:34;;;;;;;5.25;2.15;;;;;;;15.37;63.61;99085.25;5033548;28;20284;-64
2022/05/24 11:46:33;;;;;;;5.43;2.53;;;;;;;15.35;63.16;99079.19;5033382;28;20047;-64
2022/05/24 11:49:27;;;;;;;3.80;2.05;;;;;;;15.39;63.74;99075.63;5033226;28;20056;-64
2022/05/24 11:52:39;;;;;;;3.25;2.20;;;;;;;15.40;63.68;99079.97;5018430;28;20400;-65
2022/05/24 11:55:40;;;;;;;2.10;1.80;;;;;;;15.41;63.55;99075.63;5033182;28;20523;-64
2022/05/24 11:58:30;;;;;;;2.53;1.80;;;;;;;15.42;63.47;99078.19;5033582;28;20048;-64
2022/05/24 12:01:17;;;;;;;4.68;2.22;;;;;;;15.44;63.60;99076.41;5033198;28;20061;-64
2022/05/24 12:07:58;;;;;;;2.95;1.70;;;;;;;15.47;63.57;99073.75;5033484;28;20075;-64
2022/05/24 12:10:24;;;;;;;3.88;1.88;;;;;;;15.48;63.54;99072.88;5032455;28;20527;-65
2022/05/24 12:13:23;;;;;;;4.50;2.10;;;;;;;15.50;63.54;99080.66;5018618;28;20044;-64
2022/05/24 12:16:32;;;;;;;2.63;1.63;;;;;;;15.49;63.42;99077.16;5033476;28;20049;-65
2022/05/24 12:19:43;;;;;;;3.15;2.03;;;;;;;15.50;63.50;99081.50;5018356;28;20045;-64
2022/05/24 12:22:50;;;;;;;3.85;2.17;;;;;;;15.54;63.56;99087.56;5018223;28;20056;-63
2022/05/24 12:25:59;;;;;;;3.55;2.33;;;;;;;15.53;63.72;99072.78;5018207;28;20064;-64
2022/05/24 12:28:53;;;;;;;3.13;2.10;;;;;;;15.54;63.41;99071.88;5018433;28;20076;-64
2022/05/24 12:31:48;;;;;;;3.65;1.75;;;;;;;15.56;63.40;99072.72;5018342;28;20129;-64
2022/05/24 12:34:44;;;;;;;;;;;;;;;15.56;63.21;99069.22;5033326;28;20053;-64
2022/05/24 12:37:36;;;;;;;3.50;1.90;;;;;;;15.56;63.31;99074.44;5018481;28;19991;-64
2022/05/24 12:40:30;;;;;;;5.05;1.95;;;;;;;15.57;63.12;99076.19;5018287;28;20053;-64
2022/05/24 12:43:18;;;;;;;2.33;1.75;;;;;;;15.55;63.26;99083.19;5018169;28;20116;-64
2022/05/24 12:46:13;;;;;;;2.33;1.67;;;;;;;15.54;63.18;99100.59;5033820;28;20052;-63
2022/05/24 12:49:02;;;;;;;8.35;2.47;;;;;;;15.47;62.82;99133.81;5018065;28;20089;-63
2022/05/24 12:51:56;;;;;;;5.22;1.92;;;;;;;15.41;62.98;99127.84;5017889;28;20078;-64
2022/05/24 12:54:57;;;;;;;3.05;2.05;;;;;;;15.38;63.27;99140.06;5018321;28;20040;-64
2022/05/24 12:57:50;;;;;;;6.03;2.35;;;;;;;15.35;63.42;99131.41;5032571;28;20053;-64
2022/05/24 13:00:37;;;;;;;5.10;2.45;;;;;;;15.33;63.59;99125.38;5017833;28;20056;-63
2022/05/24 13:03:26;;;;;;;4.03;2.53;;;;;;;15.31;63.91;99128.00;5033058;28;20107;-65
2022/05/24 13:06:23;;;;;;;3.45;2.40;;;;;;;15.32;64.02;99134.09;5021741;28;20125;-64
2022/05/24 13:09:22;;;;;;;4.60;2.25;;;;;;;15.32;63.92;99121.03;5021641;28;20114;-64
2022/05/24 13:12:11;;;;;;;3.55;1.63;;;;;;;15.34;63.93;99124.47;5021391;28;20084;-64
2022/05/24 13:14:57;;;;;;;3.97;1.60;;;;;;;15.32;64.17;99139.31;5021359;28;20523;-64
2022/05/24 13:17:52;;;;;;;4.03;2.20;;;;;;;15.31;63.81;99143.66;5036764;28;20072;-64
2022/05/24 13:20:49;;;;;;;6.18;2.83;;;;;;;15.33;63.90;99138.44;5021470;28;20043;-64
2022/05/24 13:23:38;;;;;;;2.63;1.67;;;;;;;15.29;64.00;99145.44;5021186;28;20095;-64
2022/05/24 13:26:33;;;;;;;5.15;2.20;;;;;;;15.30;63.97;99151.53;5021481;28;20120;-64
2022/05/24 13:29:29;;;;;;;2.85;2.20;;;;;;;15.30;63.95;99156.75;5021032;28;20052;-64
2022/05/24 13:35:19;;;;;;;4.55;2.10;;;;;;;15.36;64.17;99148.78;5036045;28;20167;-64
2022/05/24 13:38:05;;;;;;;3.65;1.88;;;;;;;15.38;64.32;99155.72;5020924;28;20072;-64
2022/05/24 13:40:58;;;;;;;2.80;2.30;;;;;;;15.39;64.13;99153.97;5021070;28;20048;-64
2022/05/24 13:43:44;;;;;;;2.50;1.83;;;;;;;15.42;64.10;99166.97;5021112;28;20063;-64
2022/05/24 13:46:29;;;;;;;3.03;2.00;;;;;;;15.46;64.35;99179.09;5020748;28;20416;-64
2022/05/24 13:49:26;;;;;;;5.95;2.38;;;;;;;15.48;64.35;99163.38;5035880;28;20064;-64
2022/05/24 13:52:51;;;;;;;2.10;1.90;;;;;;;15.48;64.25;99179.94;5020484;28;20056;-64
2022/05/24 13:55:52;;;;;;;4.80;2.13;;;;;;;15.46;64.15;99179.09;5005535;28;20052;-64
2022/05/24 13:58:46;;;;;;;3.90;1.98;;;;;;;15.40;63.95;99180.94;5021072;28;20606;-64
2022/05/24 14:01:41;;;;;;;3.70;1.60;;;;;;;15.37;63.73;99181.84;5020636;28;20056;-64
2022/05/24 14:04:38;;;;;;;;;;;;;;;15.36;63.72;99177.50;5021070;28;20091;-64